Time;durP1;ratioP1;P1;durP2;ratioP2;P2;SDS_P1;SDS_P2;PMS_P1;PMS_P2;Temp;Humidity;BMP_temperature;BMP_pressure;BME280_temperature;BME280_humidity;BME280_pressure;Samples;Min_cycle;Max_cycle;Signal;HPM_P1;HPM_P2
2022/03/18 00:02:14;;;;;;;7.30;5.45;;;;;;;;;;5068252;28;20028;-89
2022/03/18 00:04:41;;;;;;;8.63;6.50;;;;;;;;;;5064662;28;20052;-88
2022/03/18 00:07:07;;;;;;;9.43;6.40;;;;;;;;;;5055289;28;20488;-88
2022/03/18 00:09:33;;;;;;;8.43;5.53;;;;;;;;;;5065338;28;20032;-88
2022/03/18 00:11:58;;;;;;;8.10;6.40;;;;;;;;;;5059735;28;20098;-87
2022/03/18 00:14:23;;;;;;;9.75;7.10;;;;;;;;;;5054216;28;20040;-84
2022/03/18 00:16:49;;;;;;;7.50;5.70;;;;;;;;;;5060233;28;20029;-85
2022/03/18 00:19:15;;;;;;;9.65;6.88;;;;;;;;;;5054784;28;20074;-85
2022/03/18 00:21:40;;;;;;;10.30;6.47;;;;;;;;;;5053915;28;20033;-85
2022/03/18 00:24:06;;;;;;;8.13;6.75;;;;;;;;;;5056626;28;20027;-85
2022/03/18 00:26:32;;;;;;;6.95;5.82;;;;;;;;;;5051566;28;20684;-86
2022/03/18 00:28:58;;;;;;;8.85;6.68;;;;;;;;;;5065104;28;20039;-85
2022/03/18 00:31:23;;;;;;;7.75;6.00;;;;;;;;;;5062926;28;20119;-84
2022/03/18 00:33:49;;;;;;;9.90;6.72;;;;;;;;;;5063433;28;20172;-85
2022/03/18 00:36:14;;;;;;;9.20;6.28;;;;;;;;;;5062841;28;20025;-84
2022/03/18 00:38:40;;;;;;;9.60;7.25;;;;;;;;;;5057304;28;20393;-87
2022/03/18 00:41:06;;;;;;;8.45;6.50;;;;;;;;;;5069915;28;20017;-88
2022/03/18 00:43:32;;;;;;;9.90;6.85;;;;;;;;;;5068373;28;20032;-87
2022/03/18 00:45:58;;;;;;;8.63;6.57;;;;;;;;;;5061505;28;20029;-89
2022/03/18 00:53:52;;;;;;;7.15;5.18;;;;;;;;;;5061446;28;20035;-89
2022/03/18 00:56:18;;;;;;;8.18;5.93;;;;;;;;;;5056077;28;20115;-90
2022/03/18 00:58:43;;;;;;;10.10;6.63;;;;;;;;;;5058884;28;20105;-89
2022/03/18 01:01:10;;;;;;;8.85;6.78;;;;;;;;;;5063492;28;20032;-89
2022/03/18 01:03:36;;;;;;;7.47;6.00;;;;;;;;;;5057203;28;20025;-89
2022/03/18 01:06:01;;;;;;;7.88;6.20;;;;;;;;;;5060751;28;20025;-87
2022/03/18 01:08:27;;;;;;;6.72;5.40;;;;;;;;;;5058950;28;20043;-86
2022/03/18 01:10:53;;;;;;;7.15;5.70;;;;;;;;;;5065477;28;20052;-87
2022/03/18 01:13:20;;;;;;;9.50;6.78;;;;;;;;;;5068425;28;20054;-87
2022/03/18 01:15:46;;;;;;;7.60;6.28;;;;;;;;;;5058753;28;20041;-87
2022/03/18 01:18:11;;;;;;;6.65;5.78;;;;;;;;;;5055681;28;20032;-87
2022/03/18 01:20:37;;;;;;;7.35;6.03;;;;;;;;;;5059146;28;20135;-88
2022/03/18 01:23:06;;;;;;;8.20;6.22;;;;;;;;;;5057055;28;20021;-89
2022/03/18 01:25:32;;;;;;;8.70;6.38;;;;;;;;;;5057239;28;20025;-88
2022/03/18 01:27:58;;;;;;;7.53;5.47;;;;;;;;;;5063847;28;20025;-90
2022/03/18 01:30:24;;;;;;;6.45;5.50;;;;;;;;;;5061760;28;20031;-88
2022/03/18 01:32:50;;;;;;;8.68;5.75;;;;;;;;;;5066825;28;20047;-88
2022/03/18 01:35:15;;;;;;;9.57;6.35;;;;;;;;;;5063198;28;20071;-89
2022/03/18 01:37:41;;;;;;;9.90;5.85;;;;;;;;;;5064575;28;20387;-88
2022/03/18 01:40:07;;;;;;;9.02;6.60;;;;;;;;;;5063142;28;20078;-88
2022/03/18 01:42:32;;;;;;;9.20;6.88;;;;;;;;;;5055144;28;20443;-88
2022/03/18 01:44:58;;;;;;;7.72;6.47;;;;;;;;;;5052798;28;20029;-87
2022/03/18 01:47:24;;;;;;;7.63;5.88;;;;;;;;;;5067838;28;20056;-88
2022/03/18 01:49:50;;;;;;;8.68;6.72;;;;;;;;;;5057679;28;20123;-86
2022/03/18 01:52:15;;;;;;;8.48;5.93;;;;;;;;;;5050203;28;20021;-85
2022/03/18 01:54:44;;;;;;;7.85;6.10;;;;;;;;;;5059198;28;20024;-86
2022/03/18 01:57:10;;;;;;;7.97;5.95;;;;;;;;;;5055192;28;20082;-86
2022/03/18 01:59:35;;;;;;;9.32;6.15;;;;;;;;;;5060342;28;20416;-86
2022/03/18 02:02:01;;;;;;;8.27;6.07;;;;;;;;;;5053433;28;20040;-86
2022/03/18 02:04:26;;;;;;;8.68;6.18;;;;;;;;;;5066056;28;20528;-86
2022/03/18 02:06:53;;;;;;;7.38;6.22;;;;;;;;;;5050762;28;20033;-87
2022/03/18 02:09:19;;;;;;;7.35;6.03;;;;;;;;;;5056769;28;20494;-85
2022/03/18 02:11:46;;;;;;;8.40;6.13;;;;;;;;;;5059640;28;20056;-87
2022/03/18 02:14:12;;;;;;;8.88;7.05;;;;;;;;;;5066016;28;20376;-85
2022/03/18 02:16:39;;;;;;;8.48;6.72;;;;;;;;;;5064566;28;20024;-86
2022/03/18 02:19:07;;;;;;;8.98;6.97;;;;;;;;;;5052317;28;20032;-87
2022/03/18 02:21:35;;;;;;;12.00;6.50;;;;;;;;;;5053848;28;20024;-85
2022/03/18 02:24:00;;;;;;;9.00;5.90;;;;;;;;;;5051822;28;20106;-87
2022/03/18 02:26:26;;;;;;;9.73;6.80;;;;;;;;;;5054266;28;20060;-88
2022/03/18 02:28:52;;;;;;;9.43;7.43;;;;;;;;;;5060204;28;20538;-87
2022/03/18 02:31:18;;;;;;;8.77;6.95;;;;;;;;;;5056474;28;20051;-86
2022/03/18 02:33:44;;;;;;;10.05;7.05;;;;;;;;;;5059407;28;20243;-86
2022/03/18 02:36:10;;;;;;;8.32;6.40;;;;;;;;;;5068009;28;20100;-86
2022/03/18 02:38:36;;;;;;;11.80;7.18;;;;;;;;;;5058113;28;20037;-86
2022/03/18 02:41:01;;;;;;;12.48;7.18;;;;;;;;;;5072212;28;20489;-87
2022/03/18 02:43:27;;;;;;;9.80;6.95;;;;;;;;;;5066924;28;20024;-87
2022/03/18 02:45:52;;;;;;;12.38;8.70;;;;;;;;;;5070945;28;20087;-86
2022/03/18 02:48:18;;;;;;;9.45;7.43;;;;;;;;;;5054525;28;20017;-87
2022/03/18 02:50:43;;;;;;;9.75;7.85;;;;;;;;;;5062560;28;20107;-87
2022/03/18 02:53:10;;;;;;;9.75;7.32;;;;;;;;;;5059656;28;20123;-87
2022/03/18 02:55:36;;;;;;;9.20;6.55;;;;;;;;;;5065399;28;20074;-88
2022/03/18 02:58:01;;;;;;;12.38;8.68;;;;;;;;;;5059269;28;20024;-86
2022/03/18 03:00:27;;;;;;;10.18;7.22;;;;;;;;;;5061890;28;20098;-87
2022/03/18 03:02:52;;;;;;;9.48;7.43;;;;;;;;;;5063074;28;20480;-87
2022/03/18 03:08:02;;;;;;;9.30;7.32;;;;;;;;;;5063170;28;20067;-86
2022/03/18 03:10:30;;;;;;;11.90;7.03;;;;;;;;;;5054180;28;20442;-87
2022/03/18 03:13:01;;;;;;;8.70;7.07;;;;;;;;;;5061221;28;20028;-86
2022/03/18 03:15:27;;;;;;;8.73;6.72;;;;;;;;;;5061580;28;20035;-87
2022/03/18 03:17:53;;;;;;;10.02;6.63;;;;;;;;;;5063006;28;20115;-87
2022/03/18 03:20:18;;;;;;;9.80;7.18;;;;;;;;;;5056197;28;20025;-86
2022/03/18 03:22:44;;;;;;;8.55;6.68;;;;;;;;;;5062796;28;20461;-87
2022/03/18 03:25:09;;;;;;;14.27;8.90;;;;;;;;;;5067533;28;20028;-86
2022/03/18 03:27:35;;;;;;;10.65;7.65;;;;;;;;;;5056195;28;20037;-86
2022/03/18 03:30:05;;;;;;;10.93;7.75;;;;;;;;;;5056864;28;20028;-86
2022/03/18 03:32:31;;;;;;;13.80;7.95;;;;;;;;;;5050614;28;20025;-86
2022/03/18 03:34:57;;;;;;;11.50;8.55;;;;;;;;;;5063836;28;20048;-86
2022/03/18 03:37:24;;;;;;;11.80;9.13;;;;;;;;;;5063676;28;20020;-87
2022/03/18 03:39:50;;;;;;;11.45;8.02;;;;;;;;;;5055756;28;20354;-87
2022/03/18 03:42:16;;;;;;;10.95;8.50;;;;;;;;;;5057148;28;20029;-88
2022/03/18 03:44:42;;;;;;;12.10;8.20;;;;;;;;;;5067824;28;20028;-85
2022/03/18 03:47:08;;;;;;;10.95;7.18;;;;;;;;;;5057395;28;20039;-88
2022/03/18 03:49:34;;;;;;;9.82;6.72;;;;;;;;;;5059128;28;20554;-87
2022/03/18 03:52:00;;;;;;;9.85;7.35;;;;;;;;;;5065873;28;20055;-86
2022/03/18 03:54:27;;;;;;;8.82;6.75;;;;;;;;;;5056286;28;20025;-85
2022/03/18 03:56:54;;;;;;;12.10;7.10;;;;;;;;;;5057399;28;20024;-86
2022/03/18 03:59:20;;;;;;;10.48;7.95;;;;;;;;;;5049988;28;20031;-86
2022/03/18 04:01:45;;;;;;;12.38;8.48;;;;;;;;;;5064113;28;20741;-87
2022/03/18 04:04:12;;;;;;;10.48;7.47;;;;;;;;;;5067725;28;20040;-86
2022/03/18 04:06:37;;;;;;;9.93;7.85;;;;;;;;;;5060157;28;20029;-86
2022/03/18 04:09:03;;;;;;;8.93;6.65;;;;;;;;;;5064517;28;20366;-88
2022/03/18 04:11:29;;;;;;;10.63;7.00;;;;;;;;;;5059787;28;20053;-88
2022/03/18 04:13:55;;;;;;;9.07;6.90;;;;;;;;;;5065689;28;20032;-88
2022/03/18 04:16:21;;;;;;;9.07;6.78;;;;;;;;;;5053831;28;20028;-86
2022/03/18 04:18:47;;;;;;;8.48;6.13;;;;;;;;;;5061252;28;20039;-86
2022/03/18 04:21:13;;;;;;;8.82;6.05;;;;;;;;;;5061001;28;20028;-88
2022/03/18 04:23:40;;;;;;;9.13;6.75;;;;;;;;;;5055740;28;20032;-89
2022/03/18 04:26:05;;;;;;;7.90;5.70;;;;;;;;;;5063537;28;20116;-88
2022/03/18 04:28:31;;;;;;;8.77;6.65;;;;;;;;;;5052993;28;20524;-87
2022/03/18 04:30:56;;;;;;;10.50;7.35;;;;;;;;;;5063631;28;20373;-89
2022/03/18 04:33:21;;;;;;;10.57;7.07;;;;;;;;;;5067838;28;20035;-88
2022/03/18 04:35:47;;;;;;;8.75;6.30;;;;;;;;;;5059242;28;20115;-88
2022/03/18 04:38:12;;;;;;;9.80;6.80;;;;;;;;;;5057458;28;20113;-88
2022/03/18 04:40:38;;;;;;;10.85;6.97;;;;;;;;;;5052602;28;20025;-89
2022/03/18 04:43:04;;;;;;;8.50;6.40;;;;;;;;;;5053461;28;20033;-88
2022/03/18 04:45:29;;;;;;;8.98;6.38;;;;;;;;;;5065816;28;20081;-88
2022/03/18 04:47:55;;;;;;;10.05;6.40;;;;;;;;;;5050605;28;20025;-88
2022/03/18 04:50:20;;;;;;;10.60;6.68;;;;;;;;;;5060989;28;20021;-87
2022/03/18 04:52:46;;;;;;;9.52;6.25;;;;;;;;;;5063043;28;20509;-87
2022/03/18 04:55:11;;;;;;;9.35;6.22;;;;;;;;;;5051659;28;20030;-88
2022/03/18 04:57:37;;;;;;;8.02;6.50;;;;;;;;;;5055733;28;20100;-89
2022/03/18 05:00:05;;;;;;;8.73;6.07;;;;;;;;;;5054985;28;20039;-88
2022/03/18 05:02:31;;;;;;;8.23;5.63;;;;;;;;;;5052308;28;20025;-89
2022/03/18 05:04:56;;;;;;;9.73;6.30;;;;;;;;;;5057629;28;20405;-89
2022/03/18 05:07:22;;;;;;;9.70;6.88;;;;;;;;;;5068769;28;20111;-87
2022/03/18 05:09:48;;;;;;;7.53;6.10;;;;;;;;;;5056532;28;20108;-88
2022/03/18 05:12:16;;;;;;;11.63;7.25;;;;;;;;;;5051837;28;20075;-88
2022/03/18 05:14:42;;;;;;;7.70;6.00;;;;;;;;;;5052112;28;20378;-89
2022/03/18 05:17:09;;;;;;;8.68;6.18;;;;;;;;;;5051389;28;20397;-89
2022/03/18 05:19:36;;;;;;;8.35;5.45;;;;;;;;;;5066022;28;20036;-89
2022/03/18 05:22:01;;;;;;;7.28;5.53;;;;;;;;;;5059039;28;20025;-90
2022/03/18 05:24:27;;;;;;;9.02;5.78;;;;;;;;;;5058969;28;20381;-88
2022/03/18 05:26:54;;;;;;;8.27;6.25;;;;;;;;;;5055508;28;20347;-89
2022/03/18 05:29:19;;;;;;;10.50;6.72;;;;;;;;;;5059994;28;20028;-89
2022/03/18 05:31:46;;;;;;;11.40;7.43;;;;;;;;;;5058266;28;20412;-87
2022/03/18 05:34:13;;;;;;;10.95;7.50;;;;;;;;;;5056910;28;20423;-87
2022/03/18 05:36:40;;;;;;;8.20;5.55;;;;;;;;;;5061568;28;20081;-87
2022/03/18 05:39:05;;;;;;;8.07;5.25;;;;;;;;;;5061316;28;20392;-86
2022/03/18 05:41:32;;;;;;;6.57;4.80;;;;;;;;;;5062969;28;20033;-86
2022/03/18 05:43:58;;;;;;;7.05;4.60;;;;;;;;;;5064924;28;20035;-87
2022/03/18 05:46:23;;;;;;;7.05;4.65;;;;;;;;;;5054855;28;20025;-87
2022/03/18 05:48:49;;;;;;;6.43;4.47;;;;;;;;;;5052470;28;20115;-87
2022/03/18 05:51:14;;;;;;;7.13;4.95;;;;;;;;;;5059800;28;20032;-87
2022/03/18 05:53:40;;;;;;;6.22;4.45;;;;;;;;;;5050802;28;20029;-87
2022/03/18 05:58:50;;;;;;;6.78;4.75;;;;;;;;;;5054226;28;20511;-87
2022/03/18 06:01:15;;;;;;;10.90;6.95;;;;;;;;;;5052845;28;20024;-86
2022/03/18 06:03:41;;;;;;;8.52;5.97;;;;;;;;;;5053571;28;20033;-85
2022/03/18 06:06:07;;;;;;;10.63;7.32;;;;;;;;;;5052476;28;20400;-87
2022/03/18 06:14:00;;;;;;;7.25;5.55;;;;;;;;;;5058703;28;20040;-88
2022/03/18 06:16:26;;;;;;;8.02;5.72;;;;;;;;;;5060558;28;20024;-88
2022/03/18 06:18:51;;;;;;;5.57;4.55;;;;;;;;;;5051347;28;20078;-88
2022/03/18 06:21:17;;;;;;;6.00;4.78;;;;;;;;;;5054753;28;20024;-87
2022/03/18 06:23:43;;;;;;;6.38;4.80;;;;;;;;;;5071240;28;20031;-88
2022/03/18 06:26:09;;;;;;;6.10;4.32;;;;;;;;;;5062819;28;20039;-88
2022/03/18 06:28:34;;;;;;;5.72;4.45;;;;;;;;;;5064246;28;20029;-88
2022/03/18 06:31:00;;;;;;;6.55;4.40;;;;;;;;;;5069506;28;20054;-88
2022/03/18 06:33:27;;;;;;;8.68;4.82;;;;;;;;;;5057204;28;20452;-89
2022/03/18 06:35:53;;;;;;;6.55;4.68;;;;;;;;;;5065355;28;20025;-87
2022/03/18 06:38:18;;;;;;;9.88;3.63;;;;;;;;;;5062590;28;20488;-90
2022/03/18 06:40:44;;;;;;;6.47;5.03;;;;;;;;;;5066220;28;20031;-89
2022/03/18 06:43:09;;;;;;;5.90;4.32;;;;;;;;;;5071618;28;20032;-89
2022/03/18 06:45:35;;;;;;;7.05;4.22;;;;;;;;;;5052938;28;20039;-88
2022/03/18 06:48:01;;;;;;;6.47;4.63;;;;;;;;;;5060717;28;20476;-88
2022/03/18 06:50:27;;;;;;;5.97;3.92;;;;;;;;;;5061073;28;20028;-88
2022/03/18 06:52:52;;;;;;;6.47;4.72;;;;;;;;;;5052077;28;20340;-89
2022/03/18 06:55:18;;;;;;;5.28;4.22;;;;;;;;;;5054382;28;20104;-88
2022/03/18 06:57:43;;;;;;;5.60;3.75;;;;;;;;;;5061917;28;20032;-87
2022/03/18 07:00:10;;;;;;;5.03;3.75;;;;;;;;;;5067616;28;20040;-88
2022/03/18 07:02:35;;;;;;;4.88;3.45;;;;;;;;;;5054847;28;20021;-88
2022/03/18 07:05:01;;;;;;;7.15;4.03;;;;;;;;;;5059091;28;20025;-88
2022/03/18 07:07:26;;;;;;;8.38;4.28;;;;;;;;;;5054450;28;20033;-88
2022/03/18 07:09:52;;;;;;;8.23;4.53;;;;;;;;;;5068448;28;20051;-90
2022/03/18 07:12:18;;;;;;;6.70;4.63;;;;;;;;;;5056391;28;20468;-88
2022/03/18 07:14:43;;;;;;;5.10;3.83;;;;;;;;;;5060494;28;20619;-88
2022/03/18 07:19:52;;;;;;;9.60;4.70;;;;;;;;;;5069104;28;20380;-89
2022/03/18 07:22:19;;;;;;;6.63;4.68;;;;;;;;;;5059528;28;20029;-89
2022/03/18 07:24:44;;;;;;;4.93;3.53;;;;;;;;;;5046974;28;20039;-88
2022/03/18 07:27:10;;;;;;;5.75;3.38;;;;;;;;;;5051370;28;20020;-89
2022/03/18 07:29:35;;;;;;;7.82;5.07;;;;;;;;;;5053341;28;20028;-88
2022/03/18 07:32:03;;;;;;;29.85;16.02;;;;;;;;;;5051073;28;20020;-87
2022/03/18 07:34:29;;;;;;;7.53;4.97;;;;;;;;;;5053357;28;20483;-88
2022/03/18 07:36:54;;;;;;;7.45;4.43;;;;;;;;;;5062323;28;20075;-86
2022/03/18 07:39:20;;;;;;;6.18;4.03;;;;;;;;;;5066006;28;20064;-86
2022/03/18 07:41:45;;;;;;;5.82;4.72;;;;;;;;;;5059912;28;20224;-83
2022/03/18 07:44:11;;;;;;;4.82;4.00;;;;;;;;;;5067564;28;20028;-86
2022/03/18 07:46:37;;;;;;;5.47;4.05;;;;;;;;;;5062653;28;20036;-86
2022/03/18 07:49:03;;;;;;;5.30;4.25;;;;;;;;;;5055031;28;20029;-84
2022/03/18 07:51:30;;;;;;;4.75;3.35;;;;;;;;;;5064854;28;20150;-90
2022/03/18 07:53:56;;;;;;;5.07;3.85;;;;;;;;;;5057726;28;20127;-80
2022/03/18 07:56:22;;;;;;;6.40;4.20;;;;;;;;;;5057843;28;20482;-80
2022/03/18 07:58:48;;;;;;;5.20;4.47;;;;;;;;;;5050212;28;20119;-81
2022/03/18 08:01:13;;;;;;;6.07;3.53;;;;;;;;;;5065579;28;20021;-83
2022/03/18 08:03:39;;;;;;;5.70;4.35;;;;;;;;;;5069662;28;20050;-82
2022/03/18 08:06:05;;;;;;;6.03;4.10;;;;;;;;;;5060582;28;20048;-82
2022/03/18 08:08:33;;;;;;;5.03;4.00;;;;;;;;;;5066133;28;20033;-81
2022/03/18 08:10:59;;;;;;;7.97;4.25;;;;;;;;;;5052038;28;20115;-82
2022/03/18 08:13:25;;;;;;;5.65;4.20;;;;;;;;;;5057202;28;20476;-82
2022/03/18 08:15:51;;;;;;;5.38;4.07;;;;;;;;;;5052711;28;20448;-84
2022/03/18 08:18:18;;;;;;;20.17;11.85;;;;;;;;;;5050819;28;20029;-82
2022/03/18 08:20:44;;;;;;;20.00;13.02;;;;;;;;;;5047520;28;20064;-81
2022/03/18 08:23:14;;;;;;;7.82;5.05;;;;;;;;;;5061894;28;20511;-82
2022/03/18 08:25:40;;;;;;;5.75;3.97;;;;;;;;;;5051542;28;20067;-82
2022/03/18 08:28:07;;;;;;;5.30;3.97;;;;;;;;;;5047988;28;20037;-81
2022/03/18 08:30:33;;;;;;;8.63;3.92;;;;;;;;;;5061077;28;20028;-87
2022/03/18 08:32:58;;;;;;;5.40;4.15;;;;;;;;;;5053990;28;20388;-85
2022/03/18 08:35:24;;;;;;;6.55;3.85;;;;;;;;;;5051033;28;20119;-85
2022/03/18 08:37:58;;;;;;;9.68;4.85;;;;;;;;;;5049188;28;20029;-85
2022/03/18 08:40:25;;;;;;;6.82;4.57;;;;;;;;;;5049745;28;20115;-86
2022/03/18 08:42:51;;;;;;;6.80;3.95;;;;;;;;;;5065051;28;20031;-85
2022/03/18 08:45:18;;;;;;;5.57;4.47;;;;;;;;;;5051659;28;20028;-84
2022/03/18 08:47:44;;;;;;;5.68;3.95;;;;;;;;;;5049932;28;20028;-84
2022/03/18 08:50:10;;;;;;;6.95;4.50;;;;;;;;;;5057909;28;20025;-84
2022/03/18 08:52:36;;;;;;;5.97;4.82;;;;;;;;;;5046115;28;20041;-85
2022/03/18 08:55:01;;;;;;;7.68;4.85;;;;;;;;;;5046733;28;20025;-85
2022/03/18 08:57:33;;;;;;;6.47;4.03;;;;;;;;;;5053746;28;20028;-88
2022/03/18 08:59:59;;;;;;;6.47;3.92;;;;;;;;;;5051250;28;20365;-86
2022/03/18 09:02:24;;;;;;;6.15;3.53;;;;;;;;;;5053095;28;20029;-85
2022/03/18 09:04:52;;;;;;;7.22;4.10;;;;;;;;;;5054331;28;20036;-86
2022/03/18 09:07:18;;;;;;;5.35;3.55;;;;;;;;;;5064370;28;20028;-87
2022/03/18 09:09:44;;;;;;;7.53;4.60;;;;;;;;;;5058773;28;20059;-86
2022/03/18 09:12:09;;;;;;;4.85;3.60;;;;;;;;;;5048345;28;20029;-84
2022/03/18 09:14:35;;;;;;;13.05;5.20;;;;;;;;;;5050744;28;20021;-85
2022/03/18 09:17:00;;;;;;;18.88;6.20;;;;;;;;;;5053433;28;20107;-85
2022/03/18 09:19:26;;;;;;;6.75;4.60;;;;;;;;;;5062822;28;20021;-85
2022/03/18 09:21:52;;;;;;;7.10;4.70;;;;;;;;;;5063000;28;20028;-88
2022/03/18 09:24:18;;;;;;;6.25;4.50;;;;;;;;;;5058111;28;20576;-86
2022/03/18 09:26:44;;;;;;;5.75;4.18;;;;;;;;;;5068904;28;20039;-87
2022/03/18 09:29:10;;;;;;;6.85;4.35;;;;;;;;;;5058447;28;20469;-86
2022/03/18 09:31:36;;;;;;;5.32;3.95;;;;;;;;;;5069646;28;20028;-86
2022/03/18 09:34:02;;;;;;;6.57;4.13;;;;;;;;;;5056761;28;20420;-86
2022/03/18 09:36:27;;;;;;;6.38;4.25;;;;;;;;;;5057934;28;20028;-85
2022/03/18 09:38:54;;;;;;;9.18;4.80;;;;;;;;;;5059496;28;20029;-85
2022/03/18 09:41:20;;;;;;;7.82;4.90;;;;;;;;;;5057294;28;20017;-84
2022/03/18 09:43:45;;;;;;;6.45;4.88;;;;;;;;;;5056255;28;20037;-86
2022/03/18 09:46:13;;;;;;;8.00;4.43;;;;;;;;;;5061287;28;20025;-86
2022/03/18 09:48:40;;;;;;;5.70;4.07;;;;;;;;;;5062614;28;20484;-87
2022/03/18 09:51:06;;;;;;;5.97;3.97;;;;;;;;;;5066244;28;20056;-83
2022/03/18 09:53:35;;;;;;;6.57;4.35;;;;;;;;;;5064276;28;20089;-86
2022/03/18 09:56:02;;;;;;;8.70;4.70;;;;;;;;;;5060297;28;20059;-85
2022/03/18 09:58:28;;;;;;;6.90;4.75;;;;;;;;;;5057828;28;20435;-86
2022/03/18 10:00:58;;;;;;;6.05;4.13;;;;;;;;;;5064974;28;20021;-85
2022/03/18 10:03:23;;;;;;;;;;;;;;;;;;5065647;28;20025;-86
2022/03/18 10:05:58;;;;;;;5.55;4.40;;;;;;;;;;5055586;28;19970;-86
2022/03/18 10:08:24;;;;;;;6.05;4.13;;;;;;;;;;5062957;28;20443;-85
2022/03/18 10:10:50;;;;;;;5.93;4.75;;;;;;;;;;5062823;28;20048;-86
2022/03/18 10:13:16;;;;;;;7.53;5.32;;;;;;;;;;5055666;28;20577;-85
2022/03/18 10:15:43;;;;;;;6.03;4.15;;;;;;;;;;5066176;28;20408;-84
2022/03/18 10:18:13;;;;;;;7.32;4.05;;;;;;;;;;5058584;28;20461;-87
2022/03/18 10:20:42;;;;;;;7.53;4.35;;;;;;;;;;5060163;28;20032;-86
2022/03/18 10:23:16;;;;;;;4.80;3.85;;;;;;;;;;5059704;28;20028;-85
2022/03/18 10:25:55;;;;;;;5.28;4.32;;;;;;;;;;5067424;28;20033;-85
2022/03/18 10:28:36;;;;;;;6.88;4.45;;;;;;;;;;5054283;28;20024;-90
2022/03/18 10:31:16;;;;;;;7.32;5.18;;;;;;;;;;5058282;28;20025;-85
2022/03/18 10:39:39;;;;;;;8.95;5.13;;;;;;;;;;5052848;28;20032;-86
2022/03/18 10:42:10;;;;;;;7.38;5.07;;;;;;;;;;5052035;28;20029;-88
2022/03/18 10:44:47;;;;;;;10.02;6.38;;;;;;;;;;5062323;28;20020;-87
2022/03/18 10:47:36;;;;;;;8.15;4.90;;;;;;;;;;5054788;28;20025;-87
2022/03/18 10:50:16;;;;;;;8.10;4.57;;;;;;;;;;5046784;28;20390;-87
2022/03/18 10:52:45;;;;;;;8.90;4.95;;;;;;;;;;5054991;28;20032;-86
2022/03/18 10:55:18;;;;;;;9.10;5.00;;;;;;;;;;5065416;28;20035;-87
2022/03/18 10:57:52;;;;;;;7.30;4.72;;;;;;;;;;5057196;28;20150;-86
2022/03/18 11:00:18;;;;;;;7.30;4.65;;;;;;;;;;5066686;28;20024;-87
2022/03/18 11:02:47;;;;;;;8.10;4.05;;;;;;;;;;5055751;28;20595;-87
2022/03/18 11:05:14;;;;;;;9.03;5.00;;;;;;;;;;5054178;28;20480;-87
2022/03/18 11:07:43;;;;;;;5.75;3.70;;;;;;;;;;5064864;28;20035;-86
2022/03/18 11:13:01;;;;;;;6.70;4.90;;;;;;;;;;5046526;28;20223;-87
2022/03/18 11:15:27;;;;;;;;;;;;;;;;;;5061359;28;20020;-87
2022/03/18 11:17:55;;;;;;;5.85;4.22;;;;;;;;;;5063475;28;19917;-87
2022/03/18 11:20:24;;;;;;;5.78;4.40;;;;;;;;;;5062366;28;20021;-87
2022/03/18 11:22:50;;;;;;;8.55;5.60;;;;;;;;;;5063024;28;20087;-88
2022/03/18 11:25:17;;;;;;;7.13;5.05;;;;;;;;;;5055394;28;20473;-87
2022/03/18 11:27:44;;;;;;;6.55;4.57;;;;;;;;;;5056087;28;20032;-87
2022/03/18 11:30:35;;;;;;;8.18;5.50;;;;;;;;;;5053152;28;20033;-87
2022/03/18 11:33:10;;;;;;;7.50;4.97;;;;;;;;;;5060422;28;20025;-87
2022/03/18 11:36:11;;;;;;;7.70;5.15;;;;;;;;;;5061723;28;20465;-87
2022/03/18 11:38:57;;;;;;;8.27;5.53;;;;;;;;;;5058890;28;20041;-88
2022/03/18 11:41:45;;;;;;;7.00;5.40;;;;;;;;;;5059798;28;20028;-88
2022/03/18 11:44:49;;;;;;;9.18;4.75;;;;;;;;;;5050170;28;20448;-88
2022/03/18 11:47:29;;;;;;;4.53;3.83;;;;;;;;;;5050247;28;20031;-88
2022/03/18 11:49:55;;;;;;;;;;;;;;;;;;5050940;28;20057;-88
2022/03/18 11:52:21;;;;;;;5.20;4.00;;;;;;;;;;5052923;28;19981;-87
2022/03/18 11:55:09;;;;;;;6.03;3.83;;;;;;;;;;5060524;28;20032;-88
2022/03/18 11:57:43;;;;;;;5.57;3.70;;;;;;;;;;5069004;28;20117;-88
2022/03/18 12:00:29;;;;;;;8.45;4.78;;;;;;;;;;5052184;28;20036;-87
2022/03/18 12:02:55;;;;;;;7.32;4.85;;;;;;;;;;5055185;28;20477;-89
2022/03/18 12:05:21;;;;;;;7.05;4.35;;;;;;;;;;5058887;28;20031;-89
2022/03/18 12:07:49;;;;;;;5.88;3.97;;;;;;;;;;5060176;28;20033;-89
2022/03/18 12:10:35;;;;;;;6.35;4.20;;;;;;;;;;5053521;28;20037;-89
2022/03/18 12:13:03;;;;;;;12.88;6.03;;;;;;;;;;5058948;28;20046;-88
2022/03/18 12:15:40;;;;;;;8.70;4.97;;;;;;;;;;5052637;28;20025;-88
2022/03/18 12:18:06;;;;;;;5.00;4.07;;;;;;;;;;5056017;28;20416;-87
2022/03/18 12:20:35;;;;;;;6.60;3.92;;;;;;;;;;5060552;28;20107;-89
2022/03/18 12:23:06;;;;;;;10.55;4.85;;;;;;;;;;5054553;28;20167;-89
2022/03/18 12:25:47;;;;;;;6.60;4.40;;;;;;;;;;5051747;28;20392;-88
2022/03/18 12:28:13;;;;;;;7.50;4.32;;;;;;;;;;5056440;28;20029;-88
2022/03/18 12:30:38;;;;;;;8.48;5.15;;;;;;;;;;5057494;28;20035;-88
2022/03/18 12:33:10;;;;;;;10.02;5.47;;;;;;;;;;5057053;28;20028;-89
2022/03/18 12:35:42;;;;;;;7.82;4.75;;;;;;;;;;5062221;28;20028;-88
2022/03/18 12:38:13;;;;;;;7.38;4.95;;;;;;;;;;5054352;28;20036;-88
2022/03/18 12:40:43;;;;;;;7.55;5.25;;;;;;;;;;5046856;28;20076;-88
2022/03/18 12:43:09;;;;;;;6.65;4.63;;;;;;;;;;5053242;28;20028;-89
2022/03/18 12:45:44;;;;;;;10.55;4.93;;;;;;;;;;5060362;28;20032;-89
2022/03/18 12:48:15;;;;;;;6.72;4.18;;;;;;;;;;5060859;28;20036;-89
2022/03/18 12:50:57;;;;;;;6.65;3.90;;;;;;;;;;5056485;28;20037;-90
2022/03/18 12:53:24;;;;;;;9.98;4.97;;;;;;;;;;5058990;28;20021;-89
2022/03/18 12:55:53;;;;;;;7.22;4.45;;;;;;;;;;5055815;28;20079;-87
2022/03/18 12:58:20;;;;;;;8.35;4.95;;;;;;;;;;5063043;28;20024;-89
2022/03/18 13:00:51;;;;;;;6.95;4.63;;;;;;;;;;5061609;28;20528;-89
2022/03/18 13:03:25;;;;;;;7.15;4.72;;;;;;;;;;5056146;28;20104;-89
2022/03/18 13:06:02;;;;;;;7.10;4.65;;;;;;;;;;5060853;28;20034;-88
2022/03/18 13:08:30;;;;;;;7.07;5.20;;;;;;;;;;5054950;28;20032;-89
2022/03/18 13:11:00;;;;;;;6.18;4.75;;;;;;;;;;5062687;28;20093;-89
2022/03/18 13:13:27;;;;;;;7.10;5.93;;;;;;;;;;5056412;28;20036;-89
2022/03/18 13:16:00;;;;;;;14.43;8.98;;;;;;;;;;5063929;28;20029;-87
2022/03/18 13:18:35;;;;;;;12.27;6.00;;;;;;;;;;5061040;28;20063;-90
2022/03/18 13:21:05;;;;;;;9.23;6.40;;;;;;;;;;5053752;28;20036;-89
2022/03/18 13:23:34;;;;;;;7.85;5.30;;;;;;;;;;5055608;28;20037;-89
2022/03/18 13:26:00;;;;;;;10.75;6.13;;;;;;;;;;5056773;28;20455;-88
2022/03/18 13:28:27;;;;;;;9.15;6.63;;;;;;;;;;5063519;28;20374;-87
2022/03/18 13:33:45;;;;;;;7.68;5.90;;;;;;;;;;5064115;28;20040;-88
2022/03/18 13:36:21;;;;;;;7.25;5.57;;;;;;;;;;5055647;28;20421;-88
2022/03/18 13:38:48;;;;;;;8.30;5.30;;;;;;;;;;5052718;28;20558;-88
2022/03/18 13:41:14;;;;;;;9.70;5.70;;;;;;;;;;5057426;28;20060;-88
2022/03/18 13:43:41;;;;;;;7.43;5.53;;;;;;;;;;5052836;28;20079;-88
2022/03/18 13:46:21;;;;;;;8.23;5.35;;;;;;;;;;5057433;28;20029;-88
2022/03/18 13:48:48;;;;;;;5.70;4.60;;;;;;;;;;5054020;28;20024;-89
2022/03/18 13:51:41;;;;;;;7.53;5.15;;;;;;;;;;5057301;28;20099;-89
2022/03/18 13:54:12;;;;;;;8.27;4.78;;;;;;;;;;5069058;28;20033;-89
2022/03/18 13:56:41;;;;;;;6.78;5.10;;;;;;;;;;5060868;28;20111;-88
2022/03/18 13:59:15;;;;;;;7.03;5.22;;;;;;;;;;5051802;28;20037;-90
2022/03/18 14:02:08;;;;;;;7.18;5.25;;;;;;;;;;5069034;28;20372;-89
2022/03/18 14:04:41;;;;;;;7.28;5.05;;;;;;;;;;5055378;28;20040;-89
2022/03/18 14:07:08;;;;;;;8.38;5.55;;;;;;;;;;5058388;28;20036;-88
2022/03/18 14:09:33;;;;;;;10.10;5.18;;;;;;;;;;5059443;28;20021;-89
2022/03/18 14:12:10;;;;;;;6.18;4.63;;;;;;;;;;5057080;28;20040;-88
2022/03/18 14:14:37;;;;;;;8.27;4.70;;;;;;;;;;5064502;28;20053;-87
2022/03/18 14:17:35;;;;;;;;;;;;;;;;;;;;;
2022/03/18 14:20:12;;;;;;;7.43;4.97;;;;;;;;;;5066781;28;20365;-90
2022/03/18 14:22:43;;;;;;;8.20;6.07;;;;;;;;;;5065294;28;20401;-89
2022/03/18 14:25:11;;;;;;;9.98;6.05;;;;;;;;;;5063633;28;20375;-88
2022/03/18 14:27:43;;;;;;;10.50;7.13;;;;;;;;;;5060666;28;20369;-87
2022/03/18 14:30:13;;;;;;;10.93;7.15;;;;;;;;;;5058970;28;20016;-88
2022/03/18 14:32:40;;;;;;;;;;;;;;;;;;5061571;28;20037;-88
2022/03/18 14:35:06;;;;;;;10.98;5.55;;;;;;;;;;5063196;28;20548;-88
2022/03/18 14:37:32;;;;;;;6.03;4.50;;;;;;;;;;5059982;28;20116;-90
2022/03/18 14:40:03;;;;;;;13.73;6.55;;;;;;;;;;5062440;28;20121;-89
2022/03/18 14:42:32;;;;;;;8.18;5.47;;;;;;;;;;5040736;28;20029;-88
2022/03/18 14:45:00;;;;;;;8.57;6.00;;;;;;;;;;5061521;28;20028;-89
2022/03/18 14:47:26;;;;;;;8.00;4.93;;;;;;;;;;5058349;28;20032;-88
2022/03/18 14:49:55;;;;;;;13.20;7.53;;;;;;;;;;5056112;28;20020;-89
2022/03/18 14:52:21;;;;;;;8.68;5.30;;;;;;;;;;5057152;28;20384;-86
2022/03/18 14:57:32;;;;;;;8.55;5.32;;;;;;;;;;5049789;28;20447;-90
2022/03/18 14:59:57;;;;;;;9.82;5.47;;;;;;;;;;5048460;28;20027;-87
2022/03/18 15:02:24;;;;;;;24.95;11.75;;;;;;;;;;5054868;28;20044;-85
2022/03/18 15:04:51;;;;;;;12.68;7.68;;;;;;;;;;5050698;28;20053;-85
2022/03/18 15:07:17;;;;;;;11.07;6.45;;;;;;;;;;5048581;28;20031;-85
2022/03/18 15:09:42;;;;;;;9.35;5.78;;;;;;;;;;5050677;28;20045;-85
2022/03/18 15:12:08;;;;;;;7.03;4.90;;;;;;;;;;5053225;28;20457;-85
2022/03/18 15:14:35;;;;;;;7.80;4.97;;;;;;;;;;5052433;28;20053;-85
2022/03/18 15:17:01;;;;;;;11.07;5.28;;;;;;;;;;5050979;28;20033;-86
2022/03/18 15:19:27;;;;;;;16.52;5.97;;;;;;;;;;5054382;28;20024;-85
2022/03/18 15:21:54;;;;;;;11.32;6.43;;;;;;;;;;5054645;28;20027;-85